Kona International At Keahole Airport Kailua/Kona US
ICAO: PHKO
IATA: KOA
Category: Medium
Scheduled Services:

Elevation: 47 ft
TransAlt. 18000 ft.

Airport Communications:
ATIS:127.4
CLNC DEL:121.9
HONOLULU CNTR:126
CTAF:120.3
HONOLULU:123.6
TWR:120.3

PHKO Zoom In..

If you have problems with the map follow the link
https://www.worldairports.se/pages/airport.php?
ICAO=PHKO

Runways:

(A) RW 17 length 11000 ft width 150 ft
ILS 109.70 / hdg 174

(B) RW 35 length 11000 ft width 150 ft
---- / hdg 354

Location; PHKO
Day. 21 / Time. 17.53 Zulu
* Altimeter: 29.91
* Temperature: 6/° c. 42.8°f.
* Wind from: 030° Speed 03 kn.
Dewpoint: //° c.
Visibility: 10 Statute Miles.
Clouds: Few 8000 ft.

PHKO 211753Z 03003KT 10SM FEW080 26/21 A2991 RMK AO2 SLP129 6//// T02610211 10261 20222 53013 $


Wind From 030°
Speed 03 kn.

 
 
jpsmedia.com for Web Design worldairports.se 2018   terms of use